Matney, North Carolina
Current Conditions -  °F | °C
As of 9:35 AM on Friday 28 Nov 2014 (Local Time) from KTNB Reporting Station
Light Snow Light Snow  
Wind Chill: 12°   Ceiling: 1800
Heat Index: 23°   Visibility: 10mi
Dew Point: 16°   Wind: 12mph
Humidity: 74%   Direction: 290°WNW
Pressure: 30.25"   Gusts: 16mph
Location:  36.1797°N, 81.8424°W
Report Text: KTNB 281435Z AUTO 29010G14KT 10SM -SN BKN018 M05/M09 A3025 RMK AO2 T10491089
Loading
Personal Weather Stations






























Interactive Weather Map New forecast layout! Learn more

10-Day Weather Forecast

Advertisements
Track Severe Weather on mobile